Lobo

Go HERE for most recent data if this page is not up to date.

Jump to table bottom
Date/Time Temp deg F RH % 24 Hr Snow (in) Snow Depth (in) H2O (in)
04/19 09:00 10.5 87 0.0 45.1 0.00
04/19 08:00 7.8 86 0.0 45.2 0.00
04/19 07:00 6.1 84 -0.0 45.2 0.00
04/19 06:00 6.9 84 0.0 45.2 0.00
04/19 05:00 8.8 85 0.0 45.3 0.00
04/19 04:00 10.2 88 0.0 45.4 0.00
04/19 03:00 10.8 80 0.0 45.5 0.00
04/19 02:00 11.8 81 0.0 45.4 0.00
04/19 01:00 12.4 82 0.0 45.4 0.00
04/19 00:00 11.9 85 0.0 45.5 0.00
04/18 23:00 12.8 78 0.0 45.6 0.00
04/18 22:00 13.8 75 -0.0 45.6 0.00
04/18 21:00 13.5 73 0.0 45.7 0.00
04/18 20:00 15.4 63 -0.0 45.7 0.00
04/18 19:00 17.0 57 -0.0 45.7 0.00
04/18 18:00 18.7 48 -0.0 45.8 0.00
04/18 17:00 21.7 43 0.0 45.8 0.00
04/18 16:00 23.8 48 -0.0 45.8 0.00
04/18 15:00 20.6 46 -0.0 46.0 0.00
04/18 14:00 21.0 45 0.0 46.2 0.00
04/18 13:00 18.1 56 0.0 46.3 0.00
04/18 12:00 15.6 62 0.1 46.4 0.00
04/18 11:00 13.5 60 0.2 46.5 0.00
04/18 10:00 10.6 65 0.2 46.6 0.00
04/18 09:00 7.2 78 0.2 46.6 0.00
04/18 08:00 5.0 83 0.2 46.6 0.00
04/18 07:00 2.4 87 0.2 47.1 0.00
04/18 06:00 3.9 78 0.2 46.8 0.00
04/18 05:00 4.9 75 0.3 47.0 0.00
04/18 04:00 7.1 76 0.2 47.1 0.01
04/18 03:00 7.5 79 0.2 47.1 0.00
04/18 02:00 7.6 79 0.2 47.1 0.00
04/18 01:00 8.7 78 0.0 46.8 0.00
04/18 00:00 8.8 78 0.0 46.7 0.00
.